Aviation Digital Data Service (ADDS)

Output produced by METARs form (1341 UTC 07 October 2022)
found at http://www.aviationweather.gov/metar/data/
 
VTSG 071300Z VRB02KT 9999 FEW004 SCT020 BKN080 24/24 Q1011 NOSIG
VTSG 071200Z 00000KT 9999 FEW004 SCT010 BKN060 24/24 Q1010 NOSIG
VTSG 071100Z 08003KT 9999 FEW003 SCT010 BKN030 24/24 Q1009 NOSIG
VTSG 071000Z VRB01KT 9999 -RA FEW003 SCT010 BKN040 25/24 Q1008 NOSIG
VTSG 070900Z 05004KT 010V090 9000 4400SE -RA FEW004 SCT020 BKN080 24/24 Q1008 NOSIG
VTSG 070800Z 09003KT 9999 VCSH FEW020 26/25 Q1008 NOSIG
VTSG 070700Z VRB02KT 9000 -RA FEW020 SCT060 BKN100 26/24 Q1009 RETS NOSIG
VTSG 070600Z 23005KT 180V260 9999 VCSH SCT020 BKN060 BKN100 28/24 Q1009 NOSIG
VTSG 070500Z 19004KT 130V230 9999 FEW020 SCT025 BKN030 29/24 Q1010 NOSIG
VTSG 070400Z VRB02KT 9999 SCT019 28/24 Q1011 NOSIG
VTSG 070300Z VRB02KT 9999 FEW015 BKN018 28/24 Q1012 NOSIG
VTSG 070200Z VRB02KT 9999 FEW008 SCT012 BKN018 27/24 Q1012 NOSIG
VTSG 070100Z VRB01KT 9999 FEW020 SCT030 BKN060 25/24 Q1011 NOSIG
VTSG 070000Z 00000KT 5000 BR FEW020 SCT050 BKN100 24/23 Q1010 BECMG FM0030 TL0100 NSW
VTSG 062300Z VRB01KT 5000 BR FEW020 23/23 Q1009 NOSIG
VTSG 062200Z VRB02KT 5000 BR FEW020 SCT050 23/23 Q1009 NOSIG
VTSG 062100Z 07002KT 4000 BR FEW020 23/23 Q1009 NOSIG
VTSG 062000Z 07003KT 5000 BR FEW020 23/23 Q1009 NOSIG
VTSG 061900Z VRB02KT 5000 BR FEW020 23/23 Q1009 NOSIG
VTSG 061800Z 02004KT 340V060 8000 FEW020 24/23 Q1010 NOSIG
VTSG 061700Z 35001KT 6000 FEW020 23/23 Q1011 NOSIG
VTSG 061600Z VRB02KT 8000 FEW020 24/23 Q1011 NOSIG
VTSG 061500Z VRB02KT 6000 FEW020 24/24 Q1011 NOSIG
VTSG 061400Z 04002KT 5000 BR FEW020 24/24 Q1011 NOSIG
TAF VTSG 071100Z 0712/0812 00000KT 9999 SCT020 
     BECMG 0720/0722 3000 BR 
     BECMG 0800/0802 06006KT 9999 NSW